FBFO2: Washita River Near Foss, OK

Data processed at Wed May 22 2019 23:50


All information presented herein is the property of the government of the United States of America and may be revised or deleted at any time without prior notice.
Dissemination of this information without the expressed written consent of the Public Affairs Office, Tulsa District U.S. Army Corps of Engineers is strictly prohibited.
These data are gathered electronically and, as presented, have not undergone any form of quality control. These data are not guaranteed to be valid or correct.
Go to home page.
Go to station list.
Go to home page.

Upstream stations:

Downstream station:
Previous Day
Next Day
Current Day
    
SHEF ID:       FBFO2     Washita River near Foss, OK
STATION TYPE:  
Regulating: Stage =    18.00, Flow =     1549

               PRECIP     STAGE  STAGE(2)  RIV-FLOW   VOLTAGE  BAT-LOAD
                   in        ft        ft       cfs      volt      volt
              Ccp-Rev   Ccp-Rev   Ccp-Rev   Ccp-Rev   Ccp-Rev   Ccp-Rev
(US/Central)
05/22 00:00      0.00     10.82      ----       297     12.73     12.57
05/22 01:00      0.00     10.76      ----       289     12.65     12.57
05/22 02:00      0.00     10.71      ----       282     12.65     12.57
05/22 03:00      0.00     10.70      ----       281     12.65     12.57
05/22 04:00      0.00     10.66      ----       275     12.65     12.57
05/22 05:00      0.00     10.64      ----       273     12.57     12.49
05/22 06:00      0.00     10.63      ----       271     12.57     12.49
05/22 07:00      0.00     10.63      ----       271     12.57     12.49
05/22 08:00      0.00     10.61      ----       268     12.65     12.57
05/22 09:00      0.00     10.61      ----       268     12.81     12.65
05/22 10:00      0.00     10.58      ----       264     13.37     13.21
05/22 11:00      0.00     10.58      ----       264     13.37     13.29
05/22 12:00      0.00     10.57      ----       262     13.37     13.29
05/22 13:00      0.00     10.58      ----       264     13.29     13.29
05/22 14:00      0.00     10.57      ----       262     13.29     13.21
05/22 15:00      0.00     10.55      ----       259     13.29     13.21
05/22 16:00      0.00     10.55      ----       259     14.00     13.21
05/22 17:00      0.00     10.53      ----       256     13.29     13.13
05/22 18:00      0.00     10.52      ----       255     13.68     13.29
05/22 19:00      0.00     10.51      ----       253     13.05     13.05
05/22 20:00      0.00     10.50      ----       252     12.81     12.73
05/22 21:00      0.00     10.51      ----       253     12.81     12.65
05/22 22:00      0.00     10.49      ----       250     12.73     12.65
05/22 23:00      ----      ----      ----      ----      ----      ----